Time;durP1;ratioP1;P1;durP2;ratioP2;P2;SDS_P1;SDS_P2;PMS_P1;PMS_P2;Temp;Humidity;BMP_temperature;BMP_pressure;BME280_temperature;BME280_humidity;BME280_pressure;Samples;Min_cycle;Max_cycle;Signal;HPM_P1;HPM_P2
2023/06/04 00:02:20;;;;;;;0.50;0.50;;;20.60;47.90;;;20.89;33.78;95105.72;5038202;28;20208;-45
2023/06/04 00:04:47;;;;;;;0.40;0.40;;;20.50;47.80;;;20.87;33.73;95099.03;5038159;28;20206;-47
2023/06/04 00:07:14;;;;;;;0.38;0.38;;;20.50;47.90;;;20.83;33.86;95106.72;5037920;28;20649;-45
2023/06/04 00:09:42;;;;;;;0.50;0.50;;;20.50;49.20;;;20.82;34.21;95104.31;5038370;28;20193;-47
2023/06/04 00:12:09;;;;;;;0.40;0.40;;;20.50;48.00;;;20.79;34.21;95101.09;5038166;28;20196;-44
2023/06/04 00:14:36;;;;;;;0.40;0.40;;;20.50;48.00;;;20.77;33.81;95100.53;5038285;28;20279;-44
2023/06/04 00:17:04;;;;;;;0.50;0.50;;;20.40;47.90;;;20.73;33.79;95099.41;5038214;28;20193;-44
2023/06/04 00:19:31;;;;;;;0.50;0.50;;;20.40;47.90;;;20.72;33.68;95094.34;5038205;28;20300;-44
2023/06/04 00:21:58;;;;;;;0.43;0.43;;;20.40;48.00;;;20.69;34.21;95100.97;5037040;28;20282;-44
2023/06/04 00:24:25;;;;;;;0.50;0.50;;;20.40;48.00;;;20.68;34.21;95094.00;5037949;28;20194;-43
2023/06/04 00:26:52;;;;;;;0.43;0.43;;;20.40;48.00;;;20.65;34.00;95097.16;5037643;28;20202;-44
2023/06/04 00:29:19;;;;;;;0.30;0.30;;;20.40;48.00;;;20.63;34.42;95091.31;5038122;28;20201;-44
2023/06/04 00:31:46;;;;;;;0.40;0.40;;;20.30;48.00;;;20.61;33.95;95090.75;5037658;28;20579;-44
2023/06/04 00:34:13;;;;;;;0.50;0.50;;;20.30;48.00;;;20.59;34.12;95092.84;5053420;28;20714;-44
2023/06/04 00:36:40;;;;;;;0.50;0.50;;;20.30;48.10;;;20.57;34.21;95090.44;5037639;28;20276;-44
2023/06/04 00:39:08;;;;;;;0.50;0.50;;;20.30;48.10;;;20.55;34.51;95086.41;5035239;28;20233;-44
2023/06/04 00:41:35;;;;;;;0.40;0.40;;;20.30;48.10;;;20.53;34.38;95084.00;5033486;28;20246;-44
2023/06/04 00:44:02;;;;;;;0.40;0.40;;;20.20;48.10;;;20.51;34.47;95082.63;5034414;28;20633;-44
2023/06/04 00:46:31;;;;;;;0.43;0.43;;;20.20;48.10;;;20.47;34.40;95080.47;5034709;28;20208;-43
2023/06/04 00:48:58;;;;;;;0.60;0.60;;;20.20;48.20;;;20.45;34.37;95076.44;5034393;28;20196;-43
2023/06/04 00:51:26;;;;;;;0.43;0.43;;;20.20;48.20;;;20.43;34.38;95075.88;5033378;28;20297;-47
2023/06/04 00:53:53;;;;;;;0.60;0.60;;;20.20;48.20;;;20.40;34.65;95069.19;5034324;28;20211;-47
2023/06/04 00:56:20;;;;;;;0.50;0.50;;;20.20;48.20;;;20.40;34.53;95071.06;5033246;28;20202;-47
2023/06/04 00:58:47;;;;;;;0.40;0.40;;;20.20;48.30;;;20.38;34.12;95073.97;5033345;28;20214;-44
2023/06/04 01:01:40;;;;;;;0.50;0.50;;;20.20;48.30;;;20.36;34.56;95073.44;5034122;28;20214;-44
2023/06/04 01:04:25;;;;;;;0.40;0.40;;;20.10;48.40;;;20.33;34.35;95057.94;5033480;28;20200;-47
2023/06/04 01:06:57;;;;;;;0.50;0.50;;;20.10;48.40;;;20.30;34.69;95071.78;5034593;28;20610;-43
2023/06/04 01:09:27;;;;;;;0.47;0.47;;;20.10;48.40;;;20.29;34.82;95067.50;5033133;28;20198;-43
2023/06/04 01:11:58;;;;;;;0.43;0.43;;;20.10;48.50;;;20.27;34.31;95067.72;5033328;28;20210;-44
2023/06/04 01:14:25;;;;;;;0.50;0.50;;;20.10;48.40;;;20.26;34.36;95070.63;5033272;28;20525;-44
2023/06/04 01:17:03;;;;;;;0.45;0.45;;;20.00;48.40;;;20.23;34.85;95063.97;5032948;28;20596;-44
2023/06/04 01:20:04;;;;;;;0.50;0.50;;;20.00;48.40;;;20.22;34.84;95069.53;5034090;28;20180;-45
2023/06/04 01:22:51;;;;;;;0.50;0.50;;;19.90;48.50;;;20.15;34.79;95070.53;5032985;28;20258;-44
2023/06/04 01:25:28;;;;;;;0.40;0.40;;;19.90;48.30;;;20.15;34.66;95069.72;5032932;28;20600;-43
2023/06/04 01:27:57;;;;;;;0.40;0.40;;;19.90;48.50;;;20.13;34.66;95064.63;5033137;28;20195;-48
2023/06/04 01:30:33;;;;;;;0.40;0.40;;;20.00;48.50;;;20.12;34.87;95064.91;5033640;28;20243;-48
2023/06/04 01:33:02;;;;;;;0.32;0.32;;;19.90;48.50;;;20.10;34.76;95059.81;5032895;28;20660;-44
2023/06/04 01:35:32;;;;;;;0.47;0.47;;;19.90;48.50;;;20.09;34.53;95057.38;5033659;28;20232;-45
2023/06/04 01:38:00;;;;;;;0.40;0.40;;;19.90;48.50;;;20.06;34.66;95061.34;5032950;28;20677;-44
2023/06/04 01:40:27;;;;;;;0.43;0.43;;;19.80;48.40;;;20.05;34.88;95061.63;5049148;28;20308;-44
2023/06/04 01:42:55;;;;;;;0.38;0.38;;;19.80;48.40;;;20.03;34.75;95066.38;5033486;28;20185;-45
2023/06/04 01:45:23;;;;;;;0.43;0.43;;;19.80;48.40;;;20.01;34.76;95066.63;5033447;28;20598;-44
2023/06/04 01:47:51;;;;;;;0.40;0.40;;;19.80;49.70;;;19.99;34.97;95068.72;5032372;28;20193;-48
2023/06/04 01:50:20;;;;;;;0.40;0.40;;;19.80;48.40;;;19.96;34.43;95066.56;5033248;28;20193;-45
2023/06/04 01:52:47;;;;;;;0.52;0.52;;;19.70;48.40;;;19.94;35.06;95058.00;5031534;28;20196;-44
2023/06/04 01:55:16;;;;;;;0.32;0.32;;;19.70;48.50;;;19.92;34.53;95062.78;5032404;28;20284;-46
2023/06/04 01:57:45;;;;;;;0.40;0.40;;;19.70;48.40;;;19.90;34.78;95068.34;5033848;28;20243;-45
2023/06/04 02:00:14;;;;;;;0.50;0.50;;;19.70;48.50;;;19.89;34.85;95061.41;5032263;28;20216;-47
2023/06/04 02:02:48;;;;;;;0.40;0.40;;;19.70;48.50;;;19.87;34.69;95066.16;5033538;28;20199;-43
2023/06/04 02:05:16;;;;;;;0.40;0.40;;;19.70;48.60;;;19.86;34.52;95066.41;5033742;28;20218;-43
2023/06/04 02:07:44;;;;;;;0.40;0.40;;;19.70;48.60;;;19.83;35.03;95068.53;5032017;28;20643;-43
2023/06/04 02:10:17;;;;;;;0.50;0.50;;;19.60;48.50;;;19.82;34.62;95066.09;5033085;28;20628;-43
2023/06/04 02:12:58;;;;;;;0.50;0.50;;;19.60;48.60;;;19.80;35.13;95065.53;5015934;28;20196;-43
2023/06/04 02:15:27;;;;;;;0.50;0.50;;;19.60;48.70;;;19.79;34.56;95069.25;5033136;28;20192;-43
2023/06/04 02:18:02;;;;;;;0.43;0.43;;;19.60;48.60;;;19.77;34.75;95068.69;5015570;28;20210;-43
2023/06/04 02:20:29;;;;;;;0.45;0.45;;;19.60;48.60;;;19.75;34.54;95070.78;5033203;28;20227;-43
2023/06/04 02:22:57;;;;;;;0.50;0.50;;;19.50;48.50;;;19.72;34.67;95069.41;5033028;28;20196;-43
2023/06/04 02:25:26;;;;;;;0.40;0.40;;;19.50;48.60;;;19.71;34.74;95078.44;5033158;28;20204;-43
2023/06/04 02:27:53;;;;;;;0.40;0.40;;;19.50;48.60;;;19.71;35.19;95075.00;5033219;28;20261;-43
2023/06/04 02:30:20;;;;;;;0.50;0.50;;;19.50;48.60;;;19.70;35.00;95073.38;5032707;28;20618;-43
2023/06/04 02:32:50;;;;;;;0.45;0.45;;;19.50;48.60;;;19.67;34.65;95077.34;5032809;28;20191;-43
2023/06/04 02:35:20;;;;;;;0.40;0.40;;;19.50;48.70;;;19.65;34.98;95074.91;5033032;28;20183;-44
2023/06/04 02:37:50;;;;;;;0.50;0.50;;;19.50;48.70;;;19.63;35.22;95076.22;5032593;28;20282;-43
2023/06/04 02:40:18;;;;;;;0.50;0.50;;;19.40;48.70;;;19.64;35.37;95077.81;5031883;28;20238;-45
2023/06/04 02:42:45;;;;;;;0.45;0.45;;;19.40;48.70;;;19.62;34.80;95074.59;5031662;28;20246;-43
2023/06/04 02:45:12;;;;;;;0.50;0.50;;;19.40;48.80;;;19.60;35.07;95080.16;5032541;28;20209;-43
2023/06/04 02:47:39;;;;;;;0.50;0.50;;;19.40;50.00;;;19.59;35.49;95086.53;5047958;28;20632;-43
2023/06/04 02:50:07;;;;;;;0.40;0.40;;;19.40;48.80;;;19.59;35.46;95085.72;5032518;28;20241;-44
2023/06/04 02:52:36;;;;;;;0.40;0.40;;;19.40;48.90;;;19.57;34.96;95088.63;5032743;28;20202;-44
2023/06/04 02:55:06;;;;;;;0.50;0.50;;;19.40;48.90;;;19.57;35.16;95079.84;5048085;28;20221;-44
2023/06/04 02:57:33;;;;;;;0.50;0.50;;;19.40;48.90;;;19.56;35.18;95076.38;5032543;28;20519;-44
2023/06/04 03:00:11;;;;;;;0.35;0.35;;;19.40;49.00;;;19.56;35.33;95081.69;5032591;28;20547;-43
2023/06/04 03:02:45;;;;;;;0.40;0.40;;;19.40;49.10;;;19.55;35.58;95080.09;5030970;28;20196;-43
2023/06/04 03:05:14;;;;;;;0.40;0.40;;;19.40;49.20;;;19.53;35.08;95082.19;5032393;28;20260;-43
2023/06/04 03:07:44;;;;;;;0.50;0.50;;;19.40;49.10;;;19.52;35.55;95081.38;5031161;28;20284;-45
2023/06/04 03:10:14;;;;;;;0.40;0.40;;;19.40;49.20;;;19.51;35.24;95081.63;5031718;28;20173;-43
2023/06/04 03:12:41;;;;;;;0.40;0.40;;;19.40;49.20;;;19.50;35.75;95083.47;5032469;28;20532;-45
2023/06/04 03:15:09;;;;;;;0.40;0.40;;;19.30;49.20;;;19.49;35.13;95081.06;5031463;28;20231;-44
2023/06/04 03:17:37;;;;;;;0.40;0.40;;;19.40;49.30;;;19.48;35.36;95085.59;5031079;28;20300;-46
2023/06/04 03:20:07;;;;;;;0.40;0.40;;;19.30;49.40;;;19.47;35.91;95085.81;5031391;28;20553;-44
2023/06/04 03:22:35;;;;;;;0.50;0.50;;;19.30;49.40;;;19.47;35.81;95094.63;5032364;28;20204;-45
2023/06/04 03:25:03;;;;;;;0.50;0.50;;;19.30;49.50;;;19.46;35.42;95089.53;5032059;28;20634;-44
2023/06/04 03:27:32;;;;;;;0.40;0.40;;;19.30;49.50;;;19.44;35.27;95092.44;5031284;28;20268;-46
2023/06/04 03:29:59;;;;;;;0.40;0.40;;;19.30;49.60;;;19.44;35.48;95091.63;5032045;28;20200;-43
2023/06/04 03:32:33;;;;;;;0.40;0.40;;;19.30;49.60;;;19.44;35.80;95091.63;5031057;28;20211;-43
2023/06/04 03:35:01;;;;;;;0.40;0.40;;;19.30;49.60;;;19.43;35.38;95093.50;5032229;28;20184;-44
2023/06/04 03:37:28;;;;;;;0.40;0.40;;;19.30;49.60;;;19.43;35.47;95090.00;5031967;28;20188;-44
2023/06/04 03:39:55;;;;;;;0.50;0.50;;;19.30;50.80;;;19.43;35.50;95082.84;5031301;28;20215;-44
2023/06/04 03:42:22;;;;;;;0.43;0.43;;;19.30;49.60;;;19.42;36.04;95089.22;5031718;28;20231;-44
2023/06/04 03:44:49;;;;;;;0.40;0.40;;;19.30;49.50;;;19.41;35.52;95081.47;5030881;28;20690;-44
2023/06/04 03:47:17;;;;;;;0.43;0.43;;;19.30;49.50;;;19.40;35.64;95083.34;5031109;28;20204;-44
2023/06/04 03:49:44;;;;;;;0.40;0.40;;;19.30;49.60;;;19.40;36.00;95075.34;5030648;28;20197;-43
2023/06/04 03:52:12;;;;;;;0.40;0.40;;;19.30;49.60;;;19.40;35.62;95078.00;4999460;28;20200;-44
2023/06/04 03:54:41;;;;;;;0.45;0.45;;;19.30;49.60;;;19.38;36.27;95074.78;5031960;28;20212;-47
2023/06/04 03:57:09;;;;;;;0.57;0.57;;;19.30;49.70;;;19.38;35.97;95081.97;5030954;28;20195;-44
2023/06/04 03:59:36;;;;;;;0.40;0.40;;;19.30;49.60;;;19.36;35.93;95080.34;5030582;28;20201;-45
2023/06/04 04:02:05;;;;;;;0.50;0.50;;;19.30;49.70;;;19.35;36.24;95078.72;5031539;28;20528;-46
2023/06/04 04:04:33;;;;;;;0.50;0.50;;;19.30;49.70;;;19.36;36.25;95084.88;5047287;28;20221;-43
2023/06/04 04:07:01;;;;;;;0.40;0.40;;;19.30;49.80;;;19.36;35.83;95087.53;5014468;28;20599;-43
2023/06/04 04:09:29;;;;;;;0.40;0.40;;;19.30;49.70;;;19.35;35.71;95092.03;5046955;28;20204;-44
2023/06/04 04:11:56;;;;;;;0.40;0.40;;;19.30;49.70;;;19.36;36.12;95088.34;5031040;28;20261;-43
2023/06/04 04:14:23;;;;;;;0.50;0.50;;;19.30;49.70;;;19.36;35.73;95092.84;5047430;28;20201;-43
2023/06/04 04:16:50;;;;;;;0.50;0.50;;;19.30;49.80;;;19.36;35.72;95096.31;5035349;28;20526;-43
2023/06/04 04:19:18;;;;;;;0.50;0.50;;;19.30;49.80;;;19.36;36.17;95092.84;5017581;28;20659;-43
2023/06/04 04:21:48;;;;;;;0.50;0.50;;;19.30;49.90;;;19.35;36.22;95091.25;5034740;28;20213;-43
2023/06/04 04:24:27;;;;;;;0.50;0.50;;;19.30;49.80;;;19.35;36.20;95099.22;5033807;28;20636;-43
2023/06/04 04:26:59;;;;;;;0.50;0.50;;;19.20;49.80;;;19.33;36.18;95088.84;5034039;28;20189;-43
2023/06/04 04:29:27;;;;;;;0.50;0.50;;;19.20;49.70;;;19.33;35.71;95088.00;5033774;28;20636;-45
2023/06/04 04:31:58;;;;;;;0.50;0.50;;;19.30;49.90;;;19.33;36.30;95090.66;5050395;28;20330;-43
2023/06/04 04:34:26;;;;;;;0.40;0.40;;;19.30;49.90;;;19.33;35.97;95090.66;5033679;28;20193;-45
2023/06/04 04:36:54;;;;;;;0.47;0.47;;;19.30;50.00;;;19.33;35.86;95090.66;5033605;28;20200;-43
2023/06/04 04:39:24;;;;;;;0.47;0.47;;;19.20;49.80;;;19.34;36.39;95086.97;5049941;28;20299;-44
2023/06/04 04:41:55;;;;;;;0.50;0.50;;;19.20;49.80;;;19.34;36.39;95089.63;5033760;28;20215;-43
2023/06/04 04:44:22;;;;;;;0.40;0.40;;;19.30;50.00;;;19.35;36.04;95088.59;5050086;28;20224;-43
2023/06/04 04:46:50;;;;;;;0.50;0.50;;;19.30;50.00;;;19.33;36.42;95088.00;5033479;28;20220;-44
2023/06/04 04:49:17;;;;;;;0.40;0.40;;;19.30;50.00;;;19.33;35.99;95086.16;5033930;28;20638;-43
2023/06/04 04:51:46;;;;;;;0.50;0.50;;;19.30;50.10;;;19.33;36.42;95091.50;5034913;28;20205;-45
2023/06/04 04:54:14;;;;;;;0.43;0.43;;;19.30;50.10;;;19.35;35.99;95097.34;5033363;28;20662;-44
2023/06/04 04:56:42;;;;;;;0.45;0.45;;;19.30;50.00;;;19.35;36.05;95092.03;5050177;28;20718;-44
2023/06/04 04:59:09;;;;;;;0.50;0.50;;;19.20;50.00;;;19.35;36.26;95092.03;5017126;28;20252;-44
2023/06/04 05:01:36;;;;;;;0.50;0.50;;;19.30;50.10;;;19.37;36.43;95097.09;5034349;28;20703;-45
2023/06/04 05:04:04;;;;;;;0.45;0.45;;;19.30;50.10;;;19.38;36.25;95104.03;5033169;28;20303;-44
2023/06/04 05:06:37;;;;;;;0.40;0.40;;;19.30;50.10;;;19.38;36.01;95101.38;5033229;28;20200;-44
2023/06/04 05:09:05;;;;;;;0.50;0.50;;;19.30;50.10;;;19.41;36.39;95108.88;5032962;28;20194;-45
2023/06/04 05:11:32;;;;;;;0.40;0.40;;;19.30;50.10;;;19.41;36.28;95111.53;5033074;28;20219;-44
2023/06/04 05:14:00;;;;;;;0.40;0.40;;;19.30;50.20;;;19.43;36.43;95116.63;5033084;28;20226;-46
2023/06/04 05:16:27;;;;;;;0.40;0.40;;;19.30;50.10;;;19.43;36.51;95116.63;5033033;28;20639;-44
2023/06/04 05:18:56;;;;;;;0.40;0.40;;;19.30;50.20;;;19.43;36.51;95117.44;5049448;28;20208;-44
2023/06/04 05:21:26;;;;;;;0.50;0.50;;;19.30;50.20;;;19.43;36.09;95124.59;5017261;28;20221;-48
2023/06/04 05:23:58;;;;;;;0.40;0.40;;;19.30;50.30;;;19.42;36.05;95121.16;5049575;28;20608;-44
2023/06/04 05:26:32;;;;;;;0.40;0.40;;;19.30;50.30;;;19.44;36.62;95123.56;5049712;28;20197;-45
2023/06/04 05:29:05;;;;;;;0.43;0.43;;;19.30;50.30;;;19.44;36.27;95126.22;5033243;28;20185;-46
2023/06/04 05:31:36;;;;;;;0.65;0.65;;;19.40;50.40;;;19.45;36.73;95120.63;5032943;28;20336;-45
2023/06/04 05:34:06;;;;;;;0.40;0.40;;;19.30;50.40;;;19.47;36.20;95123.88;5049594;28;20703;-45
2023/06/04 05:36:36;;;;;;;0.50;0.50;;;19.40;50.50;;;19.49;36.89;95121.78;5049342;28;20227;-45
2023/06/04 05:39:06;;;;;;;0.40;0.40;;;19.40;50.60;;;19.51;36.35;95130.31;5049141;28;20200;-48
2023/06/04 05:41:45;;;;;;;0.40;0.40;;;19.40;50.60;;;19.50;36.38;95117.25;5032866;28;20220;-46
2023/06/04 05:44:13;;;;;;;0.30;0.30;;;19.40;50.60;;;19.52;36.29;95123.94;5032818;28;20211;-45
2023/06/04 05:46:40;;;;;;;0.50;0.50;;;19.40;50.60;;;19.56;36.60;95123.47;5032682;28;20190;-46
2023/06/04 05:49:08;;;;;;;0.40;0.40;;;19.40;50.70;;;19.57;36.50;95133.06;5033539;28;20232;-45
2023/06/04 05:51:35;;;;;;;0.30;0.30;;;19.40;50.70;;;19.59;36.23;95136.28;5049169;28;20197;-47
2023/06/04 05:54:03;;;;;;;0.40;0.40;;;19.40;50.70;;;19.59;36.82;95138.94;5032479;28;20201;-43
2023/06/04 05:56:34;;;;;;;0.35;0.35;;;19.40;50.70;;;19.60;36.51;95135.22;5033404;28;20177;-43
2023/06/04 05:59:01;;;;;;;0.50;0.50;;;19.50;50.70;;;19.59;36.75;95137.09;5033445;28;20206;-43
2023/06/04 06:01:29;;;;;;;0.40;0.40;;;19.50;51.90;;;19.60;36.51;95146.66;5032355;28;20721;-43
2023/06/04 06:03:56;;;;;;;0.50;0.50;;;19.40;50.60;;;19.60;36.92;95141.34;5032301;28;20277;-43
2023/06/04 06:06:26;;;;;;;0.40;0.40;;;19.50;50.80;;;19.59;36.66;95145.09;5032245;28;20213;-43
2023/06/04 06:08:53;;;;;;;0.50;0.50;;;19.50;50.70;;;19.61;36.56;95147.50;5032083;28;20650;-43
2023/06/04 06:11:21;;;;;;;0.40;0.40;;;19.50;50.80;;;19.62;37.06;95146.44;5048804;28;20208;-43
2023/06/04 06:13:48;;;;;;;0.40;0.40;;;19.50;50.90;;;19.63;36.39;95146.19;5032395;28;20264;-43
2023/06/04 06:16:18;;;;;;;0.40;0.40;;;19.50;50.90;;;19.63;36.50;95151.53;5032104;28;20204;-45
2023/06/04 06:18:46;;;;;;;0.40;0.40;;;19.50;50.90;;;19.65;37.06;95160.06;5015869;28;20584;-43
2023/06/04 06:21:13;;;;;;;0.40;0.40;;;19.50;50.90;;;19.65;37.04;95160.06;5031918;28;20228;-43
2023/06/04 06:23:40;;;;;;;0.40;0.40;;;19.50;50.90;;;19.66;36.98;95158.19;5015793;28;20246;-44
2023/06/04 06:26:08;;;;;;;0.40;0.40;;;19.50;50.90;;;19.68;37.15;95166.75;5033177;28;20199;-43
2023/06/04 06:28:44;;;;;;;0.35;0.35;;;19.50;50.90;;;19.66;36.72;95161.69;5031772;28;20643;-43
2023/06/04 06:31:11;;;;;;;0.40;0.40;;;19.60;51.00;;;19.70;36.70;95155.88;5031889;28;20241;-44
2023/06/04 06:33:42;;;;;;;0.40;0.40;;;19.60;51.00;;;19.71;36.68;95157.47;5033251;28;20199;-43
2023/06/04 06:36:12;;;;;;;0.50;0.50;;;19.60;51.00;;;19.71;37.20;95158.28;5032768;28;20258;-44
2023/06/04 06:38:40;;;;;;;0.50;0.50;;;19.60;51.00;;;19.72;36.85;95154.56;5047493;28;20608;-43
2023/06/04 06:41:07;;;;;;;0.60;0.60;;;19.60;51.00;;;19.74;36.80;95160.47;5032864;28;20192;-47
2023/06/04 06:43:35;;;;;;;0.40;0.40;;;19.60;50.90;;;19.74;37.04;95156.97;5032213;28;20249;-44
2023/06/04 06:46:02;;;;;;;0.40;0.40;;;19.60;50.90;;;19.75;36.89;95155.94;5032639;28;20205;-44
2023/06/04 06:48:29;;;;;;;0.50;0.50;;;19.60;51.00;;;19.76;36.68;95154.88;5032566;28;20254;-44
2023/06/04 06:50:56;;;;;;;0.60;0.60;;;19.60;50.90;;;19.78;36.56;95153.59;5032466;28;20188;-46
2023/06/04 06:53:23;;;;;;;0.50;0.50;;;19.70;51.10;;;19.81;36.71;95162.94;5032537;28;20192;-45
2023/06/04 06:55:51;;;;;;;0.50;0.50;;;19.70;51.10;;;19.82;36.85;95165.38;5032452;28;20239;-47
2023/06/04 06:58:18;;;;;;;0.40;0.40;;;19.70;51.10;;;19.83;37.23;95167.03;5032694;28;20203;-49
2023/06/04 07:00:45;;;;;;;0.47;0.47;;;19.70;51.10;;;19.85;37.10;95166.78;5032191;28;20194;-46
2023/06/04 07:03:12;;;;;;;0.50;0.50;;;19.70;51.10;;;19.85;37.19;95166.78;5031470;28;20223;-46
2023/06/04 07:05:39;;;;;;;0.40;0.40;;;19.70;51.10;;;19.88;37.25;95162.81;5032372;28;20230;-44
2023/06/04 07:08:07;;;;;;;0.40;0.40;;;19.80;51.20;;;19.89;37.31;95167.09;5032265;28;20199;-45
2023/06/04 07:10:34;;;;;;;0.50;0.50;;;19.80;51.20;;;19.91;37.03;95163.13;5032167;28;20326;-48
2023/06/04 07:13:01;;;;;;;0.40;0.40;;;19.80;51.20;;;19.94;36.97;95180.47;5032354;28;20209;-45
2023/06/04 07:15:28;;;;;;;0.45;0.45;;;19.80;51.20;;;19.97;37.20;95169.34;5015076;28;20270;-46
2023/06/04 07:17:55;;;;;;;0.40;0.40;;;19.80;51.30;;;19.98;37.08;95169.09;5032387;28;20237;-45
2023/06/04 07:20:22;;;;;;;0.30;0.30;;;19.80;51.30;;;20.00;36.98;95172.31;5031288;28;20256;-46
2023/06/04 07:22:49;;;;;;;0.40;0.40;;;19.80;51.30;;;20.01;37.35;95178.44;5032314;28;20272;-45
2023/06/04 07:25:16;;;;;;;0.50;0.50;;;19.90;51.50;;;20.03;36.73;95173.69;5032066;28;20600;-46
2023/06/04 07:27:43;;;;;;;0.40;0.40;;;19.90;51.50;;;20.04;37.25;95172.63;5032493;28;20198;-45
2023/06/04 07:30:11;;;;;;;0.50;0.50;;;19.90;51.40;;;20.08;37.36;95175.59;5031774;28;20234;-48
2023/06/04 07:32:38;;;;;;;0.40;0.40;;;19.90;51.40;;;20.08;36.95;95179.09;5047574;28;20251;-49
2023/06/04 07:35:06;;;;;;;0.50;0.50;;;19.90;51.50;;;20.13;36.87;95178.34;5031932;28;20598;-46
2023/06/04 07:37:33;;;;;;;0.40;0.40;;;20.00;51.70;;;20.15;37.50;95174.41;5032502;28;20264;-47
2023/06/04 07:40:00;;;;;;;0.40;0.40;;;20.00;51.80;;;20.19;37.28;95179.22;5031785;28;20197;-46
2023/06/04 07:42:27;;;;;;;0.30;0.30;;;20.00;51.80;;;20.19;37.47;95177.38;5031806;28;20215;-44
2023/06/04 07:44:54;;;;;;;0.60;0.60;;;20.00;51.80;;;20.22;37.20;95184.84;5031839;28;20190;-44
2023/06/04 07:47:22;;;;;;;0.50;0.50;;;20.10;51.80;;;20.24;37.23;95176.63;5031815;28;20290;-45
2023/06/04 07:49:49;;;;;;;0.40;0.40;;;20.10;51.90;;;20.26;37.13;95174.50;5034225;28;20278;-44
2023/06/04 07:52:28;;;;;;;0.60;0.60;;;20.10;51.90;;;20.28;37.63;95175.88;5035583;28;20200;-44
2023/06/04 07:54:56;;;;;;;0.40;0.40;;;20.20;51.90;;;20.31;37.67;95179.91;5035173;28;20536;-44
2023/06/04 07:57:23;;;;;;;0.40;0.40;;;20.20;51.90;;;;;;5035188;28;20252;-45
2023/06/04 07:59:51;;;;;;;0.50;0.50;;;20.20;52.00;;;20.37;37.61;95186.13;5034885;28;20199;-46
2023/06/04 08:02:18;;;;;;;0.40;0.40;;;20.30;52.00;;;20.40;37.18;95189.09;5032027;28;20248;-45
2023/06/04 08:04:46;;;;;;;0.47;0.47;;;20.30;52.00;;;20.42;37.71;95184.34;5035259;28;20190;-44
2023/06/04 08:07:13;;;;;;;0.30;0.30;;;20.30;52.00;;;20.44;37.25;95189.41;5026334;28;20642;-44
2023/06/04 08:09:41;;;;;;;0.40;0.40;;;20.30;52.00;;;20.44;37.34;95192.06;5030274;28;20490;-45
2023/06/04 08:12:08;;;;;;;0.40;0.40;;;20.30;52.00;;;20.44;37.75;95192.88;5020696;28;20195;-46
2023/06/04 08:14:37;;;;;;;0.50;0.50;;;20.30;52.00;;;20.46;37.85;95193.44;5024331;27;20230;-49
2023/06/04 08:17:04;;;;;;;0.55;0.55;;;20.30;53.30;;;20.47;37.76;95202.25;5015594;28;20614;-44
2023/06/04 08:19:31;;;;;;;0.60;0.60;;;20.30;52.00;;;20.49;37.96;95205.44;5018945;28;20194;-45
2023/06/04 08:21:58;;;;;;;0.60;0.60;;;20.40;52.10;;;20.49;37.80;95205.44;5035002;28;20565;-45
2023/06/04 08:24:25;;;;;;;0.50;0.50;;;20.40;52.10;;;20.51;37.60;95211.34;5035129;28;20706;-46
2023/06/04 08:26:52;;;;;;;0.40;0.40;;;20.40;52.10;;;20.52;37.86;95202.31;5022387;28;20210;-45
2023/06/04 08:29:19;;;;;;;0.40;0.40;;;20.40;52.20;;;20.55;37.89;95204.47;5020315;28;20679;-45
2023/06/04 08:31:46;;;;;;;0.40;0.40;;;20.40;52.40;;;20.57;37.90;95205.03;5026400;28;20243;-45
2023/06/04 08:34:14;;;;;;;0.50;0.50;;;20.50;52.50;;;20.60;37.93;95211.72;5033786;28;20199;-45
2023/06/04 08:36:41;;;;;;;0.65;0.65;;;20.50;52.60;;;20.62;38.11;95198.97;5023697;28;20203;-45
2023/06/04 08:39:09;;;;;;;0.50;0.50;;;20.50;52.60;;;20.63;38.13;95204.03;5028730;28;20253;-45
2023/06/04 08:41:48;;;;;;;0.40;0.40;;;20.50;52.70;;;20.64;38.12;95208.31;5047647;28;20196;-45
2023/06/04 08:44:17;;;;;;;0.60;0.60;;;20.50;54.10;;;20.65;38.05;95206.44;5014801;28;20184;-46
2023/06/04 08:46:47;;;;;;;0.45;0.45;;;20.50;52.70;;;20.68;38.36;95207.81;5033709;28;20200;-45
2023/06/04 08:49:16;;;;;;;0.40;0.40;;;20.50;52.80;;;20.71;38.23;95205.44;5034358;28;20541;-46
2023/06/04 08:51:43;;;;;;;0.35;0.35;;;20.50;52.90;;;20.74;38.39;95202.31;5045636;28;20205;-48
2023/06/04 08:54:12;;;;;;;0.40;0.40;;;20.50;52.90;;;20.77;38.36;95201.81;5013861;28;20288;-48
2023/06/04 08:56:41;;;;;;;0.40;0.40;;;20.60;53.10;;;20.79;38.06;95199.72;5014258;28;20205;-45
2023/06/04 08:59:10;;;;;;;0.40;0.40;;;20.60;53.00;;;20.81;38.25;95199.47;5025750;28;20211;-48
2023/06/04 09:01:38;;;;;;;0.50;0.50;;;20.60;53.10;;;20.82;38.01;95198.41;5024755;28;20192;-45
2023/06/04 09:04:07;;;;;;;0.40;0.40;;;20.60;53.00;;;20.82;38.12;95198.41;5102354;27;20202;-50
2023/06/04 09:06:41;;;;;;;0.43;0.43;;;20.60;52.90;;;20.86;38.42;95209.38;5015224;28;20197;-50
2023/06/04 09:09:12;;;;;;;0.40;0.40;;;20.70;53.00;;;20.87;38.07;95206.50;5033270;28;20723;-45
2023/06/04 09:11:55;;;;;;;0.50;0.50;;;20.70;52.90;;;20.90;38.08;95205.97;5034337;28;20179;-49
2023/06/04 09:14:23;;;;;;;0.30;0.30;;;20.70;53.00;;;20.93;38.19;95204.66;5034351;28;20241;-49
2023/06/04 09:16:52;;;;;;;0.40;0.40;;;20.70;53.00;;;20.97;38.34;95200.47;5033140;28;20200;-47
2023/06/04 09:19:20;;;;;;;0.50;0.50;;;20.80;53.10;;;21.01;38.44;95206.09;5034216;28;20218;-49
2023/06/04 09:21:54;;;;;;;0.40;0.40;;;20.80;53.30;;;21.05;38.40;95208.00;5014951;28;20632;-49
2023/06/04 09:24:24;;;;;;;0.50;0.50;;;20.80;53.30;;;21.09;38.15;95208.28;5019348;28;20201;-47
2023/06/04 09:26:52;;;;;;;0.50;0.50;;;20.80;53.30;;;21.12;38.06;95215.81;5033900;28;20196;-50
2023/06/04 09:29:19;;;;;;;0.40;0.40;;;20.90;53.40;;;21.16;38.60;95206.25;5034183;28;20193;-45
2023/06/04 09:31:57;;;;;;;0.40;0.40;;;20.90;53.30;;;21.20;38.47;95207.38;5014378;28;20263;-45
2023/06/04 09:34:29;;;;;;;0.40;0.40;;;20.90;53.30;;;21.23;38.32;95208.72;5031118;28;20189;-45
2023/06/04 09:36:56;;;;;;;0.45;0.45;;;21.00;53.50;;;21.26;38.31;95208.19;5019934;28;20216;-44
2023/06/04 09:39:23;;;;;;;0.50;0.50;;;21.00;53.50;;;21.29;38.30;95213.03;5022042;28;20211;-52
2023/06/04 09:42:01;;;;;;;0.40;0.40;;;21.00;53.40;;;21.34;38.34;95220.31;5020197;28;20264;-46
2023/06/04 09:44:30;;;;;;;0.40;0.40;;;21.10;53.60;;;21.36;37.90;95215.50;5012981;28;20218;-45
2023/06/04 09:46:58;;;;;;;0.40;0.40;;;21.10;53.40;;;21.39;38.39;95210.47;5014057;28;20193;-45
2023/06/04 09:49:25;;;;;;;0.40;0.40;;;21.10;53.40;;;21.42;38.48;95203.81;5013483;28;20212;-45
2023/06/04 09:51:53;;;;;;;0.40;0.40;;;21.20;53.50;;;21.46;38.47;95214.78;5013614;28;20206;-45
2023/06/04 09:54:20;;;;;;;0.40;0.40;;;21.20;53.50;;;21.48;38.54;95213.47;5013110;28;20196;-45
2023/06/04 09:56:47;;;;;;;0.50;0.50;;;21.20;53.50;;;21.49;38.22;95207.06;5013619;28;20292;-45
2023/06/04 09:59:14;;;;;;;0.35;0.35;;;21.20;53.50;;;21.53;38.29;95213.53;5028041;28;20236;-46
2023/06/04 10:01:45;;;;;;;0.40;0.40;;;21.30;53.50;;;21.56;38.44;95212.22;5030779;28;20198;-45
2023/06/04 10:04:15;;;;;;;0.40;0.40;;;21.30;53.50;;;21.58;38.67;95210.13;5013416;28;20198;-46
2023/06/04 10:06:43;;;;;;;0.40;0.40;;;21.30;53.50;;;21.62;38.43;95205.06;5013128;28;20233;-45
2023/06/04 10:09:13;;;;;;;0.38;0.38;;;21.30;53.40;;;21.65;38.40;95205.38;5041951;28;20289;-45
2023/06/04 10:11:46;;;;;;;0.40;0.40;;;21.40;53.50;;;21.69;38.33;95211.00;5113224;27;20218;-47
2023/06/04 10:14:32;;;;;;;0.40;0.40;;;21.40;53.50;;;21.74;38.38;95211.88;5023971;28;20599;-47
2023/06/04 10:17:00;;;;;;;0.40;0.40;;;21.50;53.60;;;21.76;38.09;95211.59;5053785;27;20519;-46
2023/06/04 10:19:28;;;;;;;0.40;0.40;;;21.50;53.60;;;21.81;38.64;95205.50;5025785;28;20211;-46
2023/06/04 10:21:56;;;;;;;0.38;0.38;;;21.50;53.50;;;21.83;38.64;95212.19;5039915;27;20588;-46
2023/06/04 10:24:26;;;;;;;0.40;0.40;;;21.60;53.70;;;21.86;38.18;95205.53;5046851;28;20206;-46
2023/06/04 10:26:57;;;;;;;0.40;0.40;;;21.60;53.60;;;21.88;38.06;95211.44;5022981;28;20202;-46
2023/06/04 10:29:25;;;;;;;0.30;0.30;;;21.70;53.60;;;21.91;38.39;95211.72;5013651;28;20198;-51